Time;durP1;ratioP1;P1;durP2;ratioP2;P2;SDS_P1;SDS_P2;PMS_P1;PMS_P2;Temp;Humidity;BMP_temperature;BMP_pressure;BME280_temperature;BME280_humidity;BME280_pressure;Samples;Min_cycle;Max_cycle;Signal;HPM_P1;HPM_P2
2022/03/30 00:01:06;;;;;;;56.87;34.47;;;;;;;;;;5069397;28;20187;-59
2022/03/30 00:03:31;;;;;;;62.90;35.60;;;8.10;1.00;;;;;;5067193;28;20191;-59
2022/03/30 00:05:57;;;;;;;61.50;35.47;;;8.10;1.00;;;;;;5068452;28;20445;-58
2022/03/30 00:08:23;;;;;;;66.13;36.07;;;8.00;1.00;;;;;;5069684;28;20297;-57
2022/03/30 00:10:49;;;;;;;65.83;37.13;;;8.00;1.00;;;;;;5067757;28;20244;-58
2022/03/30 00:13:15;;;;;;;62.70;37.10;;;8.00;1.00;;;;;;5066455;28;20438;-57
2022/03/30 00:15:41;;;;;;;61.23;35.17;;;7.90;1.00;;;;;;5071506;28;20191;-58
2022/03/30 00:18:06;;;;;;;62.33;36.90;;;8.00;1.00;;;;;;5068839;28;20456;-57
2022/03/30 00:20:32;;;;;;;60.00;35.50;;;8.00;1.00;;;;;;5067218;28;20675;-57
2022/03/30 00:22:57;;;;;;;63.10;37.07;;;8.10;1.00;;;;;;5070620;28;20191;-58
2022/03/30 00:25:23;;;;;;;60.73;33.10;;;8.00;1.00;;;;;;5070453;28;20191;-58
2022/03/30 00:27:49;;;;;;;58.40;34.23;;;8.00;1.00;;;;;;5068736;28;20207;-57
2022/03/30 00:30:17;;;;;;;64.63;38.57;;;8.00;1.00;;;;;;5070406;28;20207;-57
2022/03/30 00:32:42;;;;;;;65.70;37.67;;;8.00;1.00;;;;;;5071935;28;20180;-56
2022/03/30 00:35:09;;;;;;;67.40;36.93;;;8.00;1.00;;;;;;5074294;28;20592;-56
2022/03/30 00:37:36;;;;;;;60.53;37.00;;;8.00;1.00;;;;;;5073932;28;20282;-58
2022/03/30 00:40:04;;;;;;;63.83;36.10;;;7.90;1.00;;;;;;5074226;28;20528;-58
2022/03/30 00:42:30;;;;;;;61.13;36.10;;;7.90;1.00;;;;;;5074890;28;20506;-57
2022/03/30 00:44:56;;;;;;;70.20;36.60;;;8.00;1.00;;;;;;5072874;28;20444;-57
2022/03/30 00:47:24;;;;;;;58.50;34.57;;;7.90;1.00;;;;;;5072040;28;20548;-58
2022/03/30 00:49:50;;;;;;;63.77;35.90;;;7.80;1.00;;;;;;5070975;28;20449;-57
2022/03/30 00:52:17;;;;;;;71.13;39.97;;;7.80;1.00;;;;;;5072103;28;20477;-58
2022/03/30 00:54:47;;;;;;;67.57;35.50;;;7.80;1.00;;;;;;5072681;28;20527;-57
2022/03/30 00:57:14;;;;;;;58.10;34.27;;;7.80;1.00;;;;;;5072935;28;20756;-57
2022/03/30 00:59:41;;;;;;;66.93;36.90;;;7.70;1.00;;;;;;5073463;28;20437;-58
2022/03/30 01:02:07;;;;;;;64.90;35.20;;;7.80;1.00;;;;;;5073273;28;20437;-58
2022/03/30 01:04:33;;;;;;;70.63;38.07;;;7.70;1.00;;;;;;5073879;28;20438;-57
2022/03/30 01:06:59;;;;;;;66.73;38.33;;;7.70;1.00;;;;;;5072594;28;20448;-57
2022/03/30 01:09:25;;;;;;;70.73;39.63;;;7.70;1.00;;;;;;5072556;28;20473;-58
2022/03/30 01:11:54;;;;;;;64.40;35.70;;;7.70;1.00;;;;;;5072006;28;21148;-57
2022/03/30 01:14:21;;;;;;;65.53;33.63;;;7.70;1.00;;;;;;5071339;28;20441;-58
2022/03/30 01:16:47;;;;;;;69.93;36.27;;;;;;;;;;5069991;28;20812;-57
2022/03/30 01:19:14;;;;;;;67.77;38.87;;;10.30;1.00;;;;;;5071004;28;20506;-57
2022/03/30 01:21:41;;;;;;;66.27;36.87;;;7.80;1.00;;;;;;5073499;28;20922;-58
2022/03/30 01:24:08;;;;;;;57.37;33.67;;;7.80;1.00;;;;;;5072894;28;20483;-59
2022/03/30 01:26:34;;;;;;;61.20;35.50;;;7.70;1.00;;;;;;5075953;28;20437;-61
2022/03/30 01:29:00;;;;;;;55.47;32.57;;;7.70;1.00;;;;;;5070230;28;20626;-58
2022/03/30 01:34:10;;;;;;;64.90;35.83;;;7.70;1.00;;;;;;5073834;28;20475;-58
2022/03/30 01:36:36;;;;;;;65.50;34.77;;;7.70;1.00;;;;;;5073599;28;20441;-58
2022/03/30 01:39:03;;;;;;;61.20;34.93;;;7.70;1.00;;;;;;5073718;28;20175;-57
2022/03/30 01:41:32;;;;;;;61.97;35.80;;;7.70;1.00;;;;;;5071574;28;20325;-57
2022/03/30 01:43:58;;;;;;;57.00;33.40;;;7.70;1.00;;;;;;5073676;28;20476;-57
2022/03/30 01:46:24;;;;;;;60.50;33.50;;;7.70;1.00;;;;;;5073424;28;20469;-57
2022/03/30 01:48:50;;;;;;;61.47;34.20;;;7.70;1.00;;;;;;5072103;28;20215;-58
2022/03/30 01:51:16;;;;;;;57.30;34.80;;;7.80;1.00;;;;;;5070493;28;20800;-57
2022/03/30 01:53:42;;;;;;;63.07;34.53;;;7.80;1.00;;;;;;5072688;28;20442;-58
2022/03/30 01:56:08;;;;;;;57.93;34.60;;;7.80;1.00;;;;;;5071599;28;21091;-59
2022/03/30 01:58:34;;;;;;;67.87;36.33;;;7.80;1.00;;;;;;5071883;28;20544;-58
2022/03/30 02:01:00;;;;;;;64.63;34.03;;;7.80;1.00;;;;;;5073150;28;20259;-59
2022/03/30 02:03:27;;;;;;;66.63;35.70;;;7.80;1.00;;;;;;5054287;28;20308;-57
2022/03/30 02:05:54;;;;;;;62.73;35.10;;;7.80;1.00;;;;;;5073008;28;20438;-57
2022/03/30 02:08:20;;;;;;;63.03;35.30;;;7.80;1.00;;;;;;5073408;28;20469;-58
2022/03/30 02:10:46;;;;;;;61.83;34.80;;;7.80;1.00;;;;;;5072912;28;20444;-57
2022/03/30 02:13:11;;;;;;;62.10;34.50;;;7.90;1.00;;;;;;5072370;28;20175;-57
2022/03/30 02:15:37;;;;;;;72.17;36.03;;;;;;;;;;5075394;28;20175;-58
2022/03/30 02:18:05;;;;;;;64.60;34.33;;;8.00;1.00;;;;;;5072064;28;20191;-59
2022/03/30 02:20:31;;;;;;;61.00;34.73;;;8.00;1.00;;;;;;5073625;28;20936;-57
2022/03/30 02:22:57;;;;;;;61.30;36.00;;;7.80;1.00;;;;;;5072283;28;20449;-57
2022/03/30 02:25:23;;;;;;;66.47;36.13;;;;;;;;;;5072644;28;20525;-58
2022/03/30 02:27:49;;;;;;;54.57;33.97;;;7.90;1.00;;;;;;5070574;28;20203;-58
2022/03/30 02:30:14;;;;;;;55.67;31.77;;;7.90;1.00;;;;;;5072400;28;20430;-58
2022/03/30 02:32:42;;;;;;;61.37;36.23;;;;;;;;;;5067946;28;20210;-58
2022/03/30 02:35:08;;;;;;;64.20;33.87;;;7.90;1.00;;;;;;5053990;28;20179;-57
2022/03/30 02:37:34;;;;;;;59.67;33.03;;;7.90;1.00;;;;;;5069924;28;20498;-58
2022/03/30 02:40:00;;;;;;;57.73;35.17;;;8.00;1.00;;;;;;5066499;28;20457;-57
2022/03/30 02:42:26;;;;;;;62.87;35.50;;;;;;;;;;5072216;28;20171;-58
2022/03/30 02:44:51;;;;;;;63.00;37.00;;;8.00;1.00;;;;;;5072799;28;20815;-58
2022/03/30 02:48:17;;;;;;;58.20;34.17;;;8.00;1.00;;;;;;5071494;28;20449;-57
2022/03/30 02:50:03;;;;;;;59.53;32.70;;;7.90;1.00;;;;;;5068872;28;20305;-57
2022/03/30 02:52:29;;;;;;;63.03;34.00;;;7.90;1.00;;;;;;5050245;28;20492;-56
2022/03/30 02:54:54;;;;;;;64.37;33.80;;;7.90;1.00;;;;;;5053524;28;20838;-56
2022/03/30 02:57:20;;;;;;;60.77;34.30;;;7.90;1.00;;;;;;5069139;28;20175;-57
2022/03/30 02:59:45;;;;;;;61.23;34.60;;;8.00;1.00;;;;;;5070721;28;20180;-58
2022/03/30 03:02:11;;;;;;;59.07;35.20;;;8.00;1.00;;;;;;5070480;28;20171;-59
2022/03/30 03:04:38;;;;;;;61.23;34.73;;;7.90;1.00;;;;;;5072460;28;20533;-57
2022/03/30 03:07:04;;;;;;;63.40;36.30;;;7.90;1.00;;;;;;5071721;28;20176;-59
2022/03/30 03:09:30;;;;;;;65.60;35.23;;;8.00;1.00;;;;;;5070655;28;20508;-58
2022/03/30 03:11:56;;;;;;;59.53;34.60;;;7.90;1.00;;;;;;5068657;28;20474;-58
2022/03/30 03:14:21;;;;;;;59.80;34.47;;;8.00;1.00;;;;;;5072171;28;20183;-58
2022/03/30 03:16:47;;;;;;;57.90;34.30;;;8.00;1.00;;;;;;5071268;28;20186;-57
2022/03/30 03:19:12;;;;;;;57.47;33.30;;;8.00;1.00;;;;;;5067323;28;20217;-57
2022/03/30 03:21:38;;;;;;;63.77;33.97;;;8.00;1.00;;;;;;5071831;28;20211;-58
2022/03/30 03:24:03;;;;;;;55.87;32.03;;;8.00;1.00;;;;;;5069749;28;20253;-58
2022/03/30 03:26:29;;;;;;;59.27;32.93;;;7.90;1.00;;;;;;5052066;28;20194;-58
2022/03/30 03:28:55;;;;;;;58.90;36.27;;;7.90;1.00;;;;;;5066082;28;20226;-57
2022/03/30 03:31:20;;;;;;;64.67;34.13;;;8.00;1.00;;;;;;5068141;28;20207;-59
2022/03/30 03:33:46;;;;;;;60.80;35.13;;;;;;;;;;5051979;28;20532;-57
2022/03/30 03:36:12;;;;;;;69.07;35.07;;;8.00;1.00;;;;;;5065952;28;20581;-57
2022/03/30 03:38:37;;;;;;;59.10;32.33;;;7.90;1.00;;;;;;5068532;28;20870;-58
2022/03/30 03:41:06;;;;;;;62.17;35.93;;;8.00;1.00;;;;;;5054102;28;20558;-58
2022/03/30 03:43:32;;;;;;;58.00;33.13;;;7.90;1.00;;;;;;5069998;28;20195;-57
2022/03/30 03:45:57;;;;;;;56.80;34.60;;;7.90;1.00;;;;;;5070796;28;20958;-58
2022/03/30 03:48:23;;;;;;;65.10;34.03;;;7.90;1.00;;;;;;5068908;28;20219;-57
2022/03/30 03:50:48;;;;;;;64.40;35.60;;;7.90;1.00;;;;;;5067110;28;20233;-57
2022/03/30 03:53:14;;;;;;;64.80;34.00;;;8.10;1.00;;;;;;5071002;28;20630;-58
2022/03/30 03:55:39;;;;;;;55.50;31.30;;;8.10;1.00;;;;;;5051245;28;20206;-57
2022/03/30 03:58:07;;;;;;;58.10;33.87;;;8.10;1.00;;;;;;5071252;28;20187;-58
2022/03/30 04:00:34;;;;;;;61.27;33.63;;;8.20;1.00;;;;;;5071369;28;20190;-57
2022/03/30 04:03:00;;;;;;;63.47;35.23;;;8.20;1.00;;;;;;5070983;28;20940;-58
2022/03/30 04:05:26;;;;;;;70.60;34.00;;;8.30;1.00;;;;;;5070208;28;20451;-57
2022/03/30 04:07:52;;;;;;;57.33;32.30;;;8.30;1.00;;;;;;5071019;28;20213;-57
2022/03/30 04:10:18;;;;;;;59.23;33.43;;;8.40;1.00;;;;;;5070020;28;20468;-58
2022/03/30 04:12:43;;;;;;;57.83;34.10;;;8.30;1.00;;;;;;5071919;28;20703;-57
2022/03/30 04:15:09;;;;;;;60.67;35.00;;;8.30;1.00;;;;;;5068454;28;20179;-57
2022/03/30 04:17:41;;;;;;;56.43;32.97;;;8.20;1.00;;;;;;5068800;28;20229;-56
2022/03/30 04:20:07;;;;;;;60.47;34.77;;;8.30;1.00;;;;;;5066266;28;20454;-57
2022/03/30 04:22:33;;;;;;;55.27;33.30;;;;;;;;;;5067391;28;20476;-58
2022/03/30 04:24:58;;;;;;;57.90;33.20;;;8.00;1.00;;;;;;5067798;28;20476;-58
2022/03/30 04:27:25;;;;;;;58.03;32.20;;;8.00;1.00;;;;;;5071128;28;20503;-58
2022/03/30 04:29:50;;;;;;;61.20;33.50;;;8.20;1.00;;;;;;5074977;28;20236;-59
2022/03/30 04:32:16;;;;;;;61.97;36.63;;;8.10;1.00;;;;;;5071099;28;20804;-58
2022/03/30 04:34:41;;;;;;;53.63;32.00;;;8.10;1.00;;;;;;5071568;28;20190;-59
2022/03/30 04:37:07;;;;;;;60.97;35.10;;;8.10;1.00;;;;;;5070860;28;20229;-59
2022/03/30 04:39:33;;;;;;;64.93;35.17;;;8.20;1.00;;;;;;5068492;28;20191;-59
2022/03/30 04:41:58;;;;;;;59.50;35.73;;;8.30;1.00;;;;;;5070464;28;20270;-59
2022/03/30 04:44:25;;;;;;;59.97;35.20;;;8.20;1.00;;;;;;5068239;28;20218;-58
2022/03/30 04:46:51;;;;;;;61.53;34.00;;;8.30;1.00;;;;;;5070132;28;20449;-58
2022/03/30 04:49:17;;;;;;;63.37;34.60;;;;;;;;;;5070978;28;20276;-60
2022/03/30 04:51:43;;;;;;;63.70;34.43;;;8.40;1.00;;;;;;5070820;28;20437;-59
2022/03/30 04:54:09;;;;;;;57.13;30.90;;;8.20;1.00;;;;;;5070908;28;20448;-58
2022/03/30 04:56:34;;;;;;;65.50;36.27;;;8.20;1.00;;;;;;5070704;28;20641;-57
2022/03/30 04:59:00;;;;;;;61.97;32.60;;;8.20;1.00;;;;;;5070768;28;20452;-59
2022/03/30 05:01:26;;;;;;;56.37;32.00;;;8.20;1.00;;;;;;5070680;28;20186;-58
2022/03/30 05:03:52;;;;;;;59.10;31.87;;;8.20;1.00;;;;;;5071496;28;20690;-59
2022/03/30 05:06:17;;;;;;;58.57;34.20;;;8.20;1.00;;;;;;5072297;28;20446;-58
2022/03/30 05:08:43;;;;;;;49.77;28.40;;;8.10;1.00;;;;;;5070853;28;20226;-56
2022/03/30 05:11:08;;;;;;;46.27;28.90;;;8.10;1.00;;;;;;5071057;28;20223;-58
2022/03/30 05:13:35;;;;;;;55.80;32.80;;;8.20;1.00;;;;;;5071083;28;20199;-59
2022/03/30 05:16:01;;;;;;;64.97;34.23;;;8.20;1.00;;;;;;5071609;28;20449;-58
2022/03/30 05:18:26;;;;;;;50.17;29.40;;;8.30;1.00;;;;;;5073680;28;20441;-57
2022/03/30 05:20:53;;;;;;;48.90;29.67;;;8.40;1.00;;;;;;5074528;28;20219;-58
2022/03/30 05:23:19;;;;;;;52.67;29.50;;;8.40;1.00;;;;;;5074626;28;20187;-58
2022/03/30 05:25:45;;;;;;;43.57;24.93;;;8.50;1.00;;;;;;5074101;28;20813;-58
2022/03/30 05:28:10;;;;;;;47.90;28.40;;;8.60;1.00;;;;;;5073980;28;20215;-58
2022/03/30 05:30:36;;;;;;;47.73;28.60;;;8.60;1.00;;;;;;5074035;28;20694;-58
2022/03/30 05:33:03;;;;;;;53.80;28.70;;;11.40;1.00;;;;;;5074799;28;20183;-59
2022/03/30 05:35:28;;;;;;;46.73;27.90;;;8.60;1.00;;;;;;5074523;28;20187;-58
2022/03/30 05:37:54;;;;;;;56.30;30.67;;;;;;;;;;5073850;28;20514;-59
2022/03/30 05:40:20;;;;;;;50.43;30.80;;;8.50;1.00;;;;;;5074333;28;20190;-58
2022/03/30 05:42:46;;;;;;;56.60;32.03;;;8.40;1.00;;;;;;5074240;28;20799;-57
2022/03/30 05:45:11;;;;;;;54.07;30.17;;;8.40;1.00;;;;;;5074223;28;20180;-58
2022/03/30 05:47:37;;;;;;;51.23;30.33;;;8.40;1.00;;;;;;5075331;28;20457;-59
2022/03/30 05:50:03;;;;;;;63.90;29.30;;;8.40;1.00;;;;;;5073975;28;20453;-59
2022/03/30 05:52:29;;;;;;;52.80;28.03;;;8.50;1.00;;;;;;5073412;28;20575;-59
2022/03/30 05:54:55;;;;;;;55.20;30.10;;;8.50;1.00;;;;;;5072413;28;20939;-59
2022/03/30 05:57:21;;;;;;;52.10;29.53;;;8.70;1.00;;;;;;5070804;28;20701;-58
2022/03/30 05:59:48;;;;;;;47.23;30.67;;;8.70;1.00;;;;;;5073809;28;20289;-58
2022/03/30 06:02:15;;;;;;;50.17;30.37;;;8.90;1.00;;;;;;5069922;28;20437;-58
2022/03/30 06:04:41;;;;;;;53.20;28.17;;;8.90;1.00;;;;;;5072478;28;20529;-60
2022/03/30 06:07:08;;;;;;;52.40;30.57;;;9.00;1.00;;;;;;5073331;28;20488;-58
2022/03/30 06:09:33;;;;;;;50.20;30.17;;;9.00;1.00;;;;;;5073582;28;20472;-58
2022/03/30 06:12:06;;;;;;;48.40;29.03;;;9.00;1.00;;;;;;5073424;28;20996;-58
2022/03/30 06:14:32;;;;;;;53.47;31.60;;;9.00;1.00;;;;;;5072071;28;20203;-60
2022/03/30 06:16:58;;;;;;;46.60;28.57;;;9.10;1.00;;;;;;5073504;28;20470;-59
2022/03/30 06:19:25;;;;;;;50.93;30.57;;;9.10;1.00;;;;;;5072559;28;20445;-59
2022/03/30 06:21:51;;;;;;;54.03;29.87;;;9.30;1.00;;;;;;5072255;28;20279;-60
2022/03/30 06:24:17;;;;;;;48.90;31.63;;;9.40;1.00;;;;;;5055008;28;20437;-59
2022/03/30 06:26:43;;;;;;;45.37;27.17;;;9.40;1.00;;;;;;5074395;28;20502;-58
2022/03/30 06:29:09;;;;;;;43.70;24.93;;;7.50;1.00;;;;;;5073363;28;20247;-59
2022/03/30 06:31:35;;;;;;;43.07;25.10;;;9.30;1.00;;;;;;5073153;28;20441;-60
2022/03/30 06:34:02;;;;;;;42.03;25.77;;;9.30;1.00;;;;;;5054480;28;21229;-59
2022/03/30 06:36:28;;;;;;;43.60;26.50;;;9.40;1.00;;;;;;5073174;28;20430;-58
2022/03/30 06:38:54;;;;;;;36.17;24.50;;;9.40;1.00;;;;;;5072525;28;20989;-59
2022/03/30 06:41:19;;;;;;;43.93;25.47;;;9.40;1.00;;;;;;5073156;28;20933;-58
2022/03/30 06:43:46;;;;;;;38.00;23.87;;;9.40;1.00;;;;;;5072997;28;20214;-60
2022/03/30 06:46:16;;;;;;;36.10;22.13;;;9.50;1.00;;;;;;5073057;28;20187;-60
2022/03/30 06:48:43;;;;;;;39.10;24.73;;;9.20;1.00;;;;;;5072709;28;20561;-59
2022/03/30 06:51:09;;;;;;;39.27;23.37;;;9.30;1.00;;;;;;5071867;28;20441;-59
2022/03/30 06:53:34;;;;;;;41.90;23.97;;;9.40;1.00;;;;;;5072978;28;20971;-58
2022/03/30 06:56:00;;;;;;;43.33;24.03;;;9.40;1.00;;;;;;5072556;28;20540;-59
2022/03/30 06:58:25;;;;;;;39.30;24.40;;;9.30;1.00;;;;;;5072755;28;20511;-59
2022/03/30 07:00:53;;;;;;;39.13;24.30;;;9.30;1.00;;;;;;5073179;28;20186;-58
2022/03/30 07:03:21;;;;;;;37.63;21.97;;;9.40;1.00;;;;;;5072687;28;20184;-60
2022/03/30 07:05:47;;;;;;;38.93;22.83;;;9.50;1.00;;;;;;5072913;28;20441;-59
2022/03/30 07:10:56;;;;;;;34.43;22.07;;;9.50;1.00;;;;;;5072740;28;20245;-58
2022/03/30 07:13:22;;;;;;;37.63;22.20;;;9.60;1.00;;;;;;5072541;28;20442;-59
2022/03/30 07:15:48;;;;;;;36.43;22.83;;;9.60;1.00;;;;;;5071554;28;20203;-57
2022/03/30 07:18:19;;;;;;;41.70;23.17;;;9.60;1.00;;;;;;5072014;28;20187;-57
2022/03/30 07:20:45;;;;;;;37.13;21.43;;;9.70;1.00;;;;;;5071706;28;20631;-57
2022/03/30 07:23:11;;;;;;;36.67;24.73;;;9.90;1.00;;;;;;5073127;28;20460;-57
2022/03/30 07:25:39;;;;;;;42.23;24.37;;;10.00;1.00;;;;;;5072102;28;20221;-59
2022/03/30 07:28:05;;;;;;;44.77;24.80;;;9.90;1.00;;;;;;5069640;28;20229;-59
2022/03/30 07:30:31;;;;;;;40.10;25.00;;;10.00;1.00;;;;;;5071942;28;20437;-58
2022/03/30 07:32:58;;;;;;;33.97;21.33;;;9.90;1.00;;;;;;5072147;28;20445;-59
2022/03/30 07:35:29;;;;;;;45.97;25.13;;;9.80;1.00;;;;;;5071725;28;20437;-60
2022/03/30 07:37:55;;;;;;;43.77;23.90;;;9.80;1.00;;;;;;5070294;28;20433;-58
2022/03/30 07:40:24;;;;;;;38.80;23.03;;;9.70;1.00;;;;;;5070647;28;20445;-57
2022/03/30 07:42:51;;;;;;;38.07;22.63;;;9.80;1.00;;;;;;5069794;28;20485;-59
2022/03/30 07:45:18;;;;;;;37.10;21.33;;;9.90;1.00;;;;;;5071322;28;20441;-59
2022/03/30 07:47:50;;;;;;;34.13;23.07;;;;;;;;;;5070750;28;20492;-60
2022/03/30 07:50:15;;;;;;;42.13;23.83;;;10.00;1.00;;;;;;5069271;28;20453;-60
2022/03/30 07:52:42;;;;;;;43.93;23.20;;;10.00;1.00;;;;;;5071854;28;20430;-58
2022/03/30 07:55:09;;;;;;;38.80;23.50;;;10.10;1.00;;;;;;5071420;28;20305;-59
2022/03/30 07:57:37;;;;;;;46.03;24.97;;;10.10;1.00;;;;;;5071976;28;20438;-58
2022/03/30 08:00:06;;;;;;;48.33;26.77;;;10.10;1.00;;;;;;5071410;28;20974;-58
2022/03/30 08:02:32;;;;;;;39.63;25.00;;;10.10;1.00;;;;;;5069803;28;20437;-58
2022/03/30 08:04:57;;;;;;;45.27;26.20;;;10.20;1.00;;;;;;5071376;28;20441;-58
2022/03/30 08:07:26;;;;;;;40.57;25.43;;;10.20;1.00;;;;;;5070881;28;20984;-60
2022/03/30 08:09:51;;;;;;;41.00;25.23;;;10.30;1.00;;;;;;5070860;28;20585;-57
2022/03/30 08:12:17;;;;;;;49.67;28.10;;;10.40;1.00;;;;;;5070763;28;20452;-60
2022/03/30 08:14:43;;;;;;;41.70;24.63;;;10.50;1.00;;;;;;5072695;28;20265;-59
2022/03/30 08:17:10;;;;;;;41.40;24.90;;;10.70;1.00;;;;;;5071989;28;20282;-57
2022/03/30 08:19:36;;;;;;;44.57;26.23;;;10.30;1.00;;;;;;5071270;28;20442;-57
2022/03/30 08:24:47;;;;;;;43.37;25.57;;;10.20;1.00;;;;;;5071123;28;20476;-59
2022/03/30 08:27:17;;;;;;;44.60;25.70;;;10.10;1.00;;;;;;5071283;28;20461;-59
2022/03/30 08:29:44;;;;;;;40.80;22.50;;;10.10;1.00;;;;;;5070094;28;20203;-58
2022/03/30 08:32:11;;;;;;;43.60;24.73;;;9.90;1.00;;;;;;5053131;28;20494;-59
2022/03/30 08:34:37;;;;;;;43.50;25.53;;;9.90;1.00;;;;;;5070825;28;20436;-58
2022/03/30 08:37:03;;;;;;;47.30;25.63;;;10.10;1.00;;;;;;5071246;28;20525;-59
2022/03/30 08:39:29;;;;;;;47.90;26.10;;;10.00;1.00;;;;;;5070879;28;20543;-57
2022/03/30 08:41:55;;;;;;;37.47;23.63;;;10.00;1.00;;;;;;5071212;28;20217;-60
2022/03/30 08:44:21;;;;;;;39.10;24.30;;;10.20;1.00;;;;;;5071340;28;20447;-58
2022/03/30 08:46:47;;;;;;;38.70;22.07;;;10.50;1.00;;;;;;5070825;28;20516;-58
2022/03/30 08:49:14;;;;;;;39.23;23.10;;;10.40;1.00;;;;;;5071036;28;20248;-58
2022/03/30 08:51:42;;;;;;;32.30;21.43;;;10.50;1.00;;;;;;5073361;28;20687;-58
2022/03/30 08:54:12;;;;;;;38.90;22.83;;;10.60;1.00;;;;;;5075879;28;20440;-60
2022/03/30 08:56:39;;;;;;;39.63;22.00;;;10.60;1.00;;;;;;5075484;28;20422;-58
2022/03/30 08:59:09;;;;;;;36.23;21.17;;;10.70;1.00;;;;;;5075583;28;20476;-58
2022/03/30 09:01:39;;;;;;;37.60;22.10;;;10.70;1.00;;;;;;5075314;28;20433;-58
2022/03/30 09:04:08;;;;;;;36.97;21.90;;;11.90;1.00;;;;;;5075419;28;20453;-59
2022/03/30 09:06:40;;;;;;;41.87;24.27;;;10.80;1.00;;;;;;5073039;28;20475;-60
2022/03/30 09:09:06;;;;;;;41.47;25.10;;;10.80;1.00;;;;;;5075762;28;20446;-57
2022/03/30 09:11:45;;;;;;;39.90;23.00;;;10.90;1.00;;;;;;5075228;28;20479;-58
2022/03/30 09:14:12;;;;;;;38.40;23.87;;;10.90;1.00;;;;;;5075038;28;20456;-58
2022/03/30 09:16:45;;;;;;;41.33;23.70;;;10.90;1.00;;;;;;5075159;28;20505;-57
2022/03/30 09:19:14;;;;;;;42.53;23.77;;;11.00;1.00;;;;;;5074641;28;20923;-60
2022/03/30 09:21:51;;;;;;;43.80;23.53;;;11.00;1.00;;;;;;5075315;28;20441;-59
2022/03/30 09:24:20;;;;;;;45.07;25.63;;;10.90;1.00;;;;;;5070866;28;20449;-59
2022/03/30 09:26:47;;;;;;;42.50;24.93;;;10.70;1.00;;;;;;5075057;28;20452;-59
2022/03/30 09:29:13;;;;;;;41.10;25.33;;;10.80;1.00;;;;;;5075548;28;20463;-59
2022/03/30 09:31:41;;;;;;;44.70;26.07;;;10.80;1.00;;;;;;5075342;28;20483;-59
2022/03/30 09:34:09;;;;;;;41.77;25.60;;;10.70;1.00;;;;;;5074986;28;20480;-58
2022/03/30 09:36:40;;;;;;;45.70;26.37;;;10.90;1.00;;;;;;5056528;28;20528;-58
2022/03/30 09:39:08;;;;;;;41.50;23.50;;;11.00;1.00;;;;;;5074818;28;20456;-58
2022/03/30 09:41:49;;;;;;;43.27;26.00;;;10.90;1.00;;;;;;5074726;28;20453;-60
2022/03/30 09:44:15;;;;;;;40.80;24.60;;;10.90;1.00;;;;;;5074227;28;20445;-58
2022/03/30 09:47:06;;;;;;;42.43;26.90;;;10.90;1.00;;;;;;5070430;28;20450;-58
2022/03/30 09:49:37;;;;;;;37.53;23.20;;;10.90;1.00;;;;;;5073857;28;20507;-59
2022/03/30 09:52:33;;;;;;;37.60;22.70;;;11.00;1.00;;;;;;5074762;28;20922;-59
2022/03/30 09:55:04;;;;;;;41.07;24.67;;;11.00;1.00;;;;;;5056855;28;20494;-59
2022/03/30 09:57:41;;;;;;;48.80;25.93;;;11.10;1.00;;;;;;5070431;28;20513;-57
2022/03/30 10:00:16;;;;;;;51.00;25.53;;;11.20;1.00;;;;;;5074291;28;20516;-59
2022/03/30 10:02:44;;;;;;;39.90;23.40;;;10.90;1.00;;;;;;5072732;28;20425;-57
2022/03/30 10:05:13;;;;;;;35.90;23.93;;;11.00;1.00;;;;;;5074113;28;20444;-61
2022/03/30 10:07:40;;;;;;;36.17;22.60;;;11.00;1.00;;;;;;5056268;28;20437;-60
2022/03/30 10:10:08;;;;;;;19.77;12.17;;;11.10;1.00;;;;;;5074339;28;20473;-59
2022/03/30 10:12:34;;;;;;;22.60;14.47;;;11.10;1.00;;;;;;5074122;28;20507;-58
2022/03/30 10:15:00;;;;;;;20.83;14.70;;;10.80;1.00;;;;;;5074098;28;20935;-60
2022/03/30 10:17:26;;;;;;;28.80;17.13;;;10.80;1.00;;;;;;5073845;28;20294;-58
2022/03/30 10:19:57;;;;;;;34.17;18.27;;;10.60;1.00;;;;;;5074176;28;20180;-58
2022/03/30 10:22:47;;;;;;;29.80;16.30;;;10.50;1.00;;;;;;5073781;28;20994;-59
2022/03/30 10:25:37;;;;;;;24.47;14.93;;;10.60;1.00;;;;;;5074043;28;20926;-59
2022/03/30 10:28:38;;;;;;;34.77;20.70;;;10.30;1.00;;;;;;5070805;28;20461;-59
2022/03/30 10:31:30;;;;;;;33.10;20.57;;;10.30;1.00;;;;;;5060041;28;20790;-60
2022/03/30 10:33:55;;;;;;;34.17;17.60;;;10.20;1.00;;;;;;5044334;28;20479;-58
2022/03/30 10:36:32;;;;;;;29.00;17.63;;;10.00;1.00;;;;;;5073033;28;20878;-58
2022/03/30 10:39:14;;;;;;;27.67;17.07;;;10.00;1.00;;;;;;5073310;28;20175;-58
2022/03/30 10:41:47;;;;;;;29.07;17.10;;;10.00;1.00;;;;;;5055000;28;21106;-59
2022/03/30 10:44:42;;;;;;;31.67;16.70;;;9.70;1.00;;;;;;5074633;28;20495;-60
2022/03/30 10:47:11;;;;;;;29.30;17.43;;;9.50;1.00;;;;;;5071076;28;20486;-58
2022/03/30 10:50:02;;;;;;;25.67;15.80;;;9.50;1.00;;;;;;5074665;28;20484;-58
2022/03/30 10:52:42;;;;;;;29.10;15.90;;;9.60;1.00;;;;;;5040960;28;20450;-59
2022/03/30 10:55:14;;;;;;;28.70;15.50;;;9.60;1.00;;;;;;5067239;28;20610;-61
2022/03/30 10:57:53;;;;;;;24.07;14.30;;;9.50;1.00;;;;;;5069751;28;20947;-58
2022/03/30 11:00:21;;;;;;;23.60;15.87;;;9.40;1.00;;;;;;5072891;28;22188;-57
2022/03/30 11:02:48;;;;;;;23.77;13.80;;;9.40;1.00;;;;;;5072507;28;20494;-58
2022/03/30 11:05:16;;;;;;;25.80;14.30;;;9.40;1.00;;;;;;5071689;28;20441;-60
2022/03/30 11:07:42;;;;;;;25.77;13.93;;;9.40;1.00;;;;;;5072077;28;20469;-59
2022/03/30 11:10:23;;;;;;;24.13;13.70;;;9.40;1.00;;;;;;5072586;28;21112;-58
2022/03/30 11:13:04;;;;;;;24.03;13.47;;;9.30;1.00;;;;;;5070743;28;20915;-58
2022/03/30 11:15:52;;;;;;;20.43;12.30;;;9.10;1.00;;;;;;5071924;28;20438;-57
2022/03/30 11:18:19;;;;;;;16.43;11.13;;;9.00;1.00;;;;;;5070275;28;20462;-57
2022/03/30 11:21:11;;;;;;;21.70;13.30;;;9.00;1.00;;;;;;5072861;28;20429;-60
2022/03/30 11:23:37;;;;;;;24.20;13.37;;;9.10;1.00;;;;;;5068468;28;20434;-57
2022/03/30 11:26:06;;;;;;;22.80;12.43;;;9.10;1.00;;;;;;5072687;28;20434;-58
2022/03/30 11:28:37;;;;;;;26.13;12.40;;;9.30;1.00;;;;;;5072782;28;20815;-58
2022/03/30 11:31:20;;;;;;;26.00;15.50;;;9.40;1.00;;;;;;5072475;28;20772;-58
2022/03/30 11:34:22;;;;;;;22.50;12.87;;;9.50;1.00;;;;;;5072501;28;20430;-58
2022/03/30 11:36:47;;;;;;;21.33;12.57;;;9.60;1.00;;;;;;5071879;28;20424;-57
2022/03/30 11:39:14;;;;;;;25.70;14.43;;;9.60;1.00;;;;;;5072523;28;20490;-57
2022/03/30 11:41:40;;;;;;;30.17;15.20;;;9.50;1.00;;;;;;5074413;28;20275;-58
2022/03/30 11:46:52;;;;;;;23.63;14.10;;;9.70;1.00;;;;;;5071001;28;20436;-60
2022/03/30 11:49:18;;;;;;;24.87;13.57;;;9.70;1.00;;;;;;5072165;28;20956;-58
2022/03/30 11:51:43;;;;;;;23.63;13.67;;;9.60;1.00;;;;;;5072297;28;20488;-60
2022/03/30 11:54:15;;;;;;;26.97;15.20;;;9.80;1.00;;;;;;5054485;28;20803;-60
2022/03/30 11:56:40;;;;;;;26.13;14.47;;;9.90;1.00;;;;;;5072262;28;20645;-58
2022/03/30 11:59:06;;;;;;;23.67;14.80;;;9.90;1.00;;;;;;5072466;28;20468;-59
2022/03/30 12:01:35;;;;;;;26.23;14.20;;;10.00;1.00;;;;;;5072026;28;20518;-59
2022/03/30 12:04:02;;;;;;;24.47;13.07;;;10.00;1.00;;;;;;5072628;28;20469;-61
2022/03/30 12:06:27;;;;;;;24.00;14.03;;;10.10;1.00;;;;;;5072625;28;20434;-59
2022/03/30 12:08:53;;;;;;;21.13;11.13;;;10.30;1.00;;;;;;5072347;28;20477;-56
2022/03/30 12:11:20;;;;;;;22.30;11.77;;;10.30;1.00;;;;;;5071668;28;20179;-57
2022/03/30 12:13:51;;;;;;;22.27;13.70;;;10.00;1.00;;;;;;5071724;28;20670;-60
2022/03/30 12:16:17;;;;;;;23.87;13.10;;;10.00;1.00;;;;;;5071768;28;20442;-58
2022/03/30 12:18:51;;;;;;;20.70;11.50;;;10.00;1.00;;;;;;5072044;28;20949;-59
2022/03/30 12:21:25;;;;;;;19.73;10.97;;;9.90;1.00;;;;;;5072094;28;20441;-58
2022/03/30 12:24:01;;;;;;;17.33;11.80;;;9.80;1.00;;;;;;5071773;28;20438;-60
2022/03/30 12:26:27;;;;;;;15.60;9.17;;;9.80;1.00;;;;;;5070987;28;20784;-58
2022/03/30 12:29:21;;;;;;;15.53;10.07;;;9.90;1.00;;;;;;5071452;28;20461;-59
2022/03/30 12:31:59;;;;;;;19.10;10.70;;;10.00;1.00;;;;;;5036967;28;20179;-60
2022/03/30 12:34:26;;;;;;;18.50;10.30;;;9.80;1.00;;;;;;5071880;28;20453;-59
2022/03/30 12:36:58;;;;;;;18.57;9.57;;;9.50;1.00;;;;;;5071616;28;20433;-61
2022/03/30 12:39:40;;;;;;;15.40;10.43;;;9.30;1.00;;;;;;5053446;28;20437;-58
2022/03/30 12:42:26;;;;;;;16.60;9.60;;;9.30;1.00;;;;;;5066996;28;20446;-59
2022/03/30 12:44:59;;;;;;;16.50;10.53;;;9.20;1.00;;;;;;5071457;28;20951;-59
2022/03/30 12:47:31;;;;;;;15.73;9.63;;;9.20;1.00;;;;;;5071944;28;20449;-58
2022/03/30 12:49:59;;;;;;;16.43;10.90;;;9.10;1.00;;;;;;5071507;28;20494;-59
2022/03/30 12:52:34;;;;;;;16.67;10.27;;;9.20;1.00;;;;;;5071538;28;20467;-58
2022/03/30 12:55:17;;;;;;;17.10;11.37;;;9.20;1.00;;;;;;5071402;28;20837;-58
2022/03/30 12:57:51;;;;;;;23.33;10.07;;;9.20;1.00;;;;;;5071616;28;20438;-58
2022/03/30 13:00:20;;;;;;;18.53;10.83;;;9.10;1.00;;;;;;5071585;28;20506;-59
2022/03/30 13:02:47;;;;;;;16.63;10.40;;;9.10;1.00;;;;;;5071103;28;20449;-58
2022/03/30 13:05:27;;;;;;;18.97;10.60;;;9.10;1.00;;;;;;5071463;28;20498;-59